Time;durP1;ratioP1;P1;durP2;ratioP2;P2;SDS_P1;SDS_P2;PMS_P1;PMS_P2;Temp;Humidity;BMP_temperature;BMP_pressure;BME280_temperature;BME280_humidity;BME280_pressure;Samples;Min_cycle;Max_cycle;Signal;HPM_P1;HPM_P2
2021/01/28 00:00:17;;;;;;;25.20;11.12;;;2.70;99.90;;;;;;474146;250;28020;-70
2021/01/28 00:02:19;;;;;;;29.17;10.52;;;2.70;99.90;;;;;;473882;250;28253;-69
2021/01/28 00:04:20;;;;;;;22.15;10.55;;;2.70;99.90;;;;;;474272;250;27551;-69
2021/01/28 00:06:21;;;;;;;25.45;10.30;;;2.70;99.90;;;;;;474237;250;27549;-70
2021/01/28 00:08:22;;;;;;;21.58;10.90;;;2.80;99.90;;;;;;474202;250;27599;-68
2021/01/28 00:10:24;;;;;;;18.92;9.65;;;2.70;99.90;;;;;;474149;250;27577;-71
2021/01/28 00:12:25;;;;;;;24.98;10.60;;;2.80;99.90;;;;;;474155;250;27563;-71
2021/01/28 00:14:26;;;;;;;15.80;9.50;;;2.70;99.90;;;;;;474085;250;27679;-69
2021/01/28 00:16:27;;;;;;;19.42;9.55;;;2.70;99.90;;;;;;474141;250;27564;-69
2021/01/28 00:18:29;;;;;;;30.80;9.32;;;2.70;99.90;;;;;;465654;255;27586;-70
2021/01/28 00:20:30;;;;;;;21.20;10.10;;;2.70;99.90;;;;;;474112;250;27913;-70
2021/01/28 00:22:31;;;;;;;24.95;9.90;;;2.70;99.90;;;;;;474150;250;27635;-70
2021/01/28 00:24:32;;;;;;;42.70;11.25;;;2.70;99.90;;;;;;474111;250;28150;-69
2021/01/28 00:26:34;;;;;;;41.47;8.88;;;2.70;99.90;;;;;;474107;250;28031;-69
2021/01/28 00:28:35;;;;;;;116.50;15.52;;;2.70;99.90;;;;;;474146;250;27600;-70
2021/01/28 00:30:36;;;;;;;20.35;10.02;;;2.60;99.90;;;;;;474077;250;27664;-69
2021/01/28 00:32:37;;;;;;;30.08;9.25;;;2.60;99.90;;;;;;474095;250;27560;-69
2021/01/28 00:34:39;;;;;;;45.80;9.77;;;2.60;99.90;;;;;;465754;255;27660;-70
2021/01/28 00:36:40;;;;;;;21.02;9.13;;;2.60;99.90;;;;;;474157;250;27618;-70
2021/01/28 00:38:41;;;;;;;75.40;13.52;;;2.70;99.90;;;;;;474276;249;27623;-70
2021/01/28 00:40:42;;;;;;;28.52;10.32;;;2.60;99.90;;;;;;465834;255;28063;-69
2021/01/28 00:42:44;;;;;;;28.55;10.07;;;2.60;99.90;;;;;;474143;250;28084;-69
2021/01/28 00:44:45;;;;;;;21.23;9.30;;;2.60;99.90;;;;;;474140;250;28007;-70
2021/01/28 00:46:46;;;;;;;19.65;8.90;;;2.60;99.90;;;;;;474176;250;27520;-69
2021/01/28 00:48:47;;;;;;;87.30;15.85;;;2.70;99.90;;;;;;465792;255;27590;-70
2021/01/28 00:50:49;;;;;;;22.27;10.30;;;2.70;99.90;;;;;;474123;250;27537;-69
2021/01/28 00:52:50;;;;;;;60.90;13.02;;;2.60;99.90;;;;;;474226;251;27691;-69
2021/01/28 00:54:51;;;;;;;78.25;14.25;;;2.60;99.90;;;;;;474282;251;27749;-71
2021/01/28 00:56:52;;;;;;;14.02;9.40;;;2.60;99.90;;;;;;474285;250;27954;-69
2021/01/28 00:58:54;;;;;;;16.02;9.20;;;2.60;99.90;;;;;;474286;248;28015;-70
2021/01/28 01:00:55;;;;;;;31.40;9.10;;;2.70;99.90;;;;;;465904;255;29191;-69
2021/01/28 01:02:56;;;;;;;18.67;9.30;;;2.70;99.90;;;;;;474300;250;27568;-69
2021/01/28 01:04:59;;;;;;;20.27;10.43;;;2.60;99.90;;;;;;465964;255;27687;-72
2021/01/28 01:06:59;;;;;;;20.23;11.02;;;2.70;99.90;;;;;;474191;250;27505;-69
2021/01/28 01:09:00;;;;;;;42.28;11.45;;;2.70;99.90;;;;;;474265;250;27660;-69
2021/01/28 01:11:01;;;;;;;63.90;12.85;;;2.70;99.90;;;;;;474206;250;27523;-69
2021/01/28 01:13:03;;;;;;;80.70;13.90;;;2.60;99.90;;;;;;474244;250;27625;-69
2021/01/28 01:15:04;;;;;;;16.55;10.23;;;2.60;99.90;;;;;;474215;250;28148;-70
2021/01/28 01:17:05;;;;;;;41.78;12.25;;;2.70;99.90;;;;;;474186;250;27976;-69
2021/01/28 01:19:06;;;;;;;59.22;12.73;;;2.70;99.90;;;;;;472479;250;27571;-70
2021/01/28 01:21:08;;;;;;;100.57;15.32;;;2.60;99.90;;;;;;477114;246;27453;-71
2021/01/28 01:23:09;;;;;;;23.27;10.48;;;2.70;99.90;;;;;;477152;248;27540;-69
2021/01/28 01:25:10;;;;;;;15.20;9.18;;;2.70;99.90;;;;;;477211;248;27584;-69
2021/01/28 01:27:11;;;;;;;20.60;10.25;;;2.70;99.90;;;;;;477180;248;27417;-69
2021/01/28 01:29:13;;;;;;;20.77;9.35;;;2.70;99.90;;;;;;477161;248;27445;-69
2021/01/28 01:31:14;;;;;;;18.83;9.63;;;2.80;99.90;;;;;;477128;248;28028;-70
2021/01/28 01:33:15;;;;;;;14.75;9.77;;;2.80;99.90;;;;;;477152;248;27928;-69
2021/01/28 01:35:16;;;;;;;14.80;7.97;;;2.80;99.90;;;;;;477190;248;27524;-69
2021/01/28 01:37:18;;;;;;;18.12;9.23;;;2.80;99.90;;;;;;477296;248;27516;-69
2021/01/28 01:39:19;;;;;;;19.75;10.00;;;2.80;99.90;;;;;;477259;248;27442;-71
2021/01/28 01:41:20;;;;;;;18.42;9.57;;;2.80;99.90;;;;;;477202;248;27532;-71
2021/01/28 01:43:21;;;;;;;14.45;8.40;;;2.80;99.90;;;;;;477200;248;27445;-69
2021/01/28 01:45:23;;;;;;;12.45;8.07;;;2.80;99.90;;;;;;477134;248;27442;-69
2021/01/28 01:47:24;;;;;;;14.18;8.77;;;2.90;99.90;;;;;;477210;248;27807;-70
2021/01/28 01:49:25;;;;;;;18.62;7.68;;;2.90;99.90;;;;;;477145;248;27458;-71
2021/01/28 01:51:26;;;;;;;13.68;8.65;;;2.90;99.90;;;;;;477128;248;28008;-69
2021/01/28 01:53:28;;;;;;;11.27;7.10;;;2.80;99.90;;;;;;477147;248;29019;-69
2021/01/28 01:55:29;;;;;;;21.70;8.60;;;2.90;99.90;;;;;;477180;248;27445;-68
2021/01/28 01:57:30;;;;;;;12.90;7.50;;;2.80;99.90;;;;;;477196;248;27474;-70
2021/01/28 01:59:31;;;;;;;9.15;6.80;;;2.90;99.90;;;;;;477177;248;27512;-70
2021/01/28 02:01:33;;;;;;;9.05;7.15;;;2.90;99.90;;;;;;477128;248;27516;-69
2021/01/28 02:03:34;;;;;;;10.48;7.30;;;2.80;99.90;;;;;;477163;248;27468;-69
2021/01/28 02:05:35;;;;;;;15.43;7.15;;;2.90;99.90;;;;;;477214;248;27493;-69
2021/01/28 02:07:36;;;;;;;8.80;5.82;;;2.90;99.90;;;;;;477195;248;27516;-70
2021/01/28 02:09:38;;;;;;;8.43;6.22;;;2.90;99.90;;;;;;477168;248;27524;-70
2021/01/28 02:11:39;;;;;;;9.40;6.25;;;2.90;99.90;;;;;;477101;248;27459;-69
2021/01/28 02:13:40;;;;;;;10.63;7.00;;;2.90;99.90;;;;;;477222;248;28138;-69
2021/01/28 02:15:41;;;;;;;9.60;6.40;;;2.90;99.90;;;;;;478518;240;28186;-69
2021/01/28 02:17:43;;;;;;;8.18;6.30;;;2.90;99.90;;;;;;470279;251;27944;-69
2021/01/28 02:19:44;;;;;;;9.25;6.70;;;2.90;99.90;;;;;;473245;251;27574;-71
2021/01/28 02:21:45;;;;;;;8.95;6.55;;;2.90;99.90;;;;;;478187;248;27520;-69
2021/01/28 02:23:46;;;;;;;10.55;6.90;;;2.90;99.90;;;;;;478308;246;27571;-71
2021/01/28 02:25:48;;;;;;;12.40;6.43;;;2.90;99.90;;;;;;478308;247;27493;-69
2021/01/28 02:27:49;;;;;;;9.10;6.45;;;2.90;99.90;;;;;;478276;247;27549;-70
2021/01/28 02:29:50;;;;;;;9.13;6.70;;;2.90;99.90;;;;;;478285;247;27583;-69
2021/01/28 02:31:51;;;;;;;7.53;5.72;;;2.90;99.90;;;;;;478260;247;27500;-69
2021/01/28 02:33:53;;;;;;;9.30;5.78;;;2.90;99.90;;;;;;478291;247;27539;-71
2021/01/28 02:35:54;;;;;;;7.25;6.05;;;2.90;99.90;;;;;;478247;247;27582;-69
2021/01/28 02:37:55;;;;;;;7.70;5.93;;;2.90;99.90;;;;;;478155;247;27527;-70
2021/01/28 02:39:56;;;;;;;7.20;5.87;;;2.90;99.90;;;;;;478132;247;28127;-69
2021/01/28 02:41:58;;;;;;;7.30;5.47;;;2.90;99.90;;;;;;478120;247;27986;-69
2021/01/28 02:43:59;;;;;;;5.18;4.68;;;2.90;99.90;;;;;;478196;247;28120;-71
2021/01/28 02:46:00;;;;;;;5.60;5.00;;;2.90;99.90;;;;;;478152;247;29122;-69
2021/01/28 02:48:01;;;;;;;6.45;5.60;;;2.90;99.90;;;;;;478085;247;27527;-70
2021/01/28 02:50:03;;;;;;;6.03;5.03;;;2.90;99.90;;;;;;477965;247;27630;-70
2021/01/28 02:52:04;;;;;;;6.28;4.50;;;2.90;99.90;;;;;;478029;247;27784;-69
2021/01/28 02:54:05;;;;;;;5.15;4.20;;;3.00;99.90;;;;;;478046;247;27526;-71
2021/01/28 02:56:06;;;;;;;4.15;3.75;;;3.00;99.90;;;;;;477850;247;27498;-69
2021/01/28 02:58:08;;;;;;;4.97;4.12;;;3.00;99.90;;;;;;477999;247;27677;-70
2021/01/28 03:00:09;;;;;;;4.70;3.90;;;3.00;99.90;;;;;;478034;247;27551;-70
2021/01/28 03:02:10;;;;;;;4.45;3.90;;;3.00;99.90;;;;;;478026;247;27535;-70
2021/01/28 03:04:11;;;;;;;3.72;3.42;;;3.00;99.90;;;;;;478088;247;27562;-71
2021/01/28 03:06:13;;;;;;;3.55;3.20;;;3.00;99.90;;;;;;478102;247;28639;-70
2021/01/28 03:08:14;;;;;;;3.70;3.40;;;3.00;99.90;;;;;;478086;247;27994;-69
2021/01/28 03:10:15;;;;;;;3.60;3.30;;;3.00;99.90;;;;;;478080;247;28028;-69
2021/01/28 03:12:16;;;;;;;3.65;3.35;;;3.00;99.90;;;;;;478100;247;28030;-69
2021/01/28 03:14:18;;;;;;;4.30;3.80;;;3.00;99.90;;;;;;478156;247;27535;-71
2021/01/28 03:16:19;;;;;;;3.47;3.17;;;3.10;99.90;;;;;;478150;247;27548;-71
2021/01/28 03:18:20;;;;;;;4.10;3.17;;;3.10;99.90;;;;;;478131;247;27535;-70
2021/01/28 03:20:21;;;;;;;3.53;3.22;;;3.10;99.90;;;;;;478055;247;27550;-69
2021/01/28 03:22:23;;;;;;;4.00;3.47;;;3.10;99.90;;;;;;478098;247;27660;-70
2021/01/28 03:24:24;;;;;;;4.20;3.80;;;3.10;99.90;;;;;;478137;247;27488;-69
2021/01/28 03:26:25;;;;;;;3.70;3.40;;;3.10;99.90;;;;;;478184;247;27507;-70
2021/01/28 03:28:26;;;;;;;3.22;2.92;;;3.10;99.90;;;;;;478217;247;27507;-71
2021/01/28 03:30:28;;;;;;;2.70;2.50;;;3.10;99.90;;;;;;478053;247;27557;-69
2021/01/28 03:32:29;;;;;;;3.00;2.80;;;3.10;99.90;;;;;;478090;247;27677;-69
2021/01/28 03:34:30;;;;;;;2.00;1.90;;;3.10;99.90;;;;;;478100;247;27973;-69
2021/01/28 03:36:31;;;;;;;2.10;2.00;;;3.10;99.90;;;;;;478080;247;28077;-70
2021/01/28 03:38:33;;;;;;;2.20;2.10;;;3.10;99.90;;;;;;478056;247;28150;-70
2021/01/28 03:40:34;;;;;;;1.80;1.70;;;3.20;99.90;;;;;;478067;247;29093;-69
2021/01/28 03:42:35;;;;;;;1.90;1.80;;;3.20;99.90;;;;;;478108;247;27557;-69
2021/01/28 03:44:37;;;;;;;2.00;1.90;;;3.20;99.90;;;;;;478160;247;27485;-69
2021/01/28 03:46:38;;;;;;;2.05;1.95;;;3.10;99.90;;;;;;478132;247;27535;-70
2021/01/28 03:48:39;;;;;;;2.00;1.90;;;3.10;99.90;;;;;;478137;247;27571;-70
2021/01/28 03:50:40;;;;;;;2.40;2.20;;;3.10;99.90;;;;;;478050;247;27544;-69
2021/01/28 03:52:41;;;;;;;1.92;1.83;;;3.10;99.90;;;;;;478171;247;27547;-70
2021/01/28 03:54:43;;;;;;;1.62;1.52;;;3.10;99.90;;;;;;478265;247;27510;-70
2021/01/28 03:56:44;;;;;;;1.90;1.80;;;3.10;99.90;;;;;;478180;247;27530;-70
2021/01/28 03:58:45;;;;;;;1.70;1.60;;;3.10;99.90;;;;;;478073;247;27535;-71
2021/01/28 04:00:46;;;;;;;2.65;1.70;;;3.20;99.90;;;;;;478093;247;27622;-69
2021/01/28 04:02:48;;;;;;;1.67;1.58;;;3.20;99.90;;;;;;478197;247;27995;-70
2021/01/28 04:04:49;;;;;;;2.17;1.60;;;3.20;99.90;;;;;;478254;247;28066;-69
2021/01/28 04:06:50;;;;;;;1.42;1.42;;;3.20;99.90;;;;;;478262;247;28086;-69
2021/01/28 04:08:51;;;;;;;1.65;1.55;;;3.20;99.90;;;;;;478270;247;28530;-69
2021/01/28 04:10:53;;;;;;;1.52;1.42;;;3.20;99.90;;;;;;478254;247;27614;-69
2021/01/28 04:12:54;;;;;;;1.50;1.40;;;3.20;99.90;;;;;;478316;247;27523;-71
2021/01/28 04:14:55;;;;;;;1.70;1.60;;;3.20;99.90;;;;;;478288;247;27574;-70
2021/01/28 04:16:56;;;;;;;1.60;1.50;;;3.20;99.90;;;;;;478290;247;27533;-70
2021/01/28 04:18:58;;;;;;;2.00;1.90;;;3.20;99.90;;;;;;478280;247;27604;-71
2021/01/28 04:20:59;;;;;;;1.33;1.33;;;3.20;99.90;;;;;;478224;247;27531;-69
2021/01/28 04:23:00;;;;;;;1.62;1.58;;;3.20;99.90;;;;;;478268;247;27557;-70
2021/01/28 04:25:01;;;;;;;1.77;1.67;;;3.20;99.90;;;;;;478154;247;27500;-71
2021/01/28 04:27:03;;;;;;;1.60;1.50;;;3.20;99.90;;;;;;478039;247;27565;-69
2021/01/28 04:29:04;;;;;;;1.77;1.67;;;3.20;99.90;;;;;;478113;246;27536;-70
2021/01/28 04:31:06;;;;;;;1.85;1.75;;;3.20;99.90;;;;;;478042;247;27994;-69
2021/01/28 04:33:08;;;;;;;1.90;1.80;;;3.20;99.90;;;;;;478065;248;28122;-70
2021/01/28 04:35:08;;;;;;;2.40;2.25;;;3.10;99.90;;;;;;478046;247;27934;-69
2021/01/28 04:37:09;;;;;;;2.10;2.00;;;3.20;99.90;;;;;;478102;247;28417;-70
2021/01/28 04:39:10;;;;;;;2.65;2.47;;;3.20;99.90;;;;;;478079;247;27550;-70
2021/01/28 04:41:11;;;;;;;2.30;2.20;;;3.20;99.90;;;;;;478027;247;27536;-70
2021/01/28 04:43:13;;;;;;;2.10;2.00;;;3.20;99.90;;;;;;478070;247;27528;-69
2021/01/28 04:45:14;;;;;;;2.72;2.53;;;3.20;99.90;;;;;;478138;247;27613;-70
2021/01/28 04:47:15;;;;;;;2.30;2.20;;;3.20;99.90;;;;;;478098;247;27638;-70
2021/01/28 04:49:16;;;;;;;2.47;2.28;;;3.20;99.90;;;;;;478082;247;27646;-70
2021/01/28 04:51:18;;;;;;;2.75;2.55;;;3.20;99.90;;;;;;478024;247;27586;-69
2021/01/28 04:53:19;;;;;;;1.90;1.80;;;3.30;99.90;;;;;;478091;247;27576;-69
2021/01/28 04:55:20;;;;;;;2.20;2.10;;;3.30;99.90;;;;;;478153;247;27558;-70
2021/01/28 04:57:22;;;;;;;2.33;2.15;;;3.20;99.90;;;;;;478224;247;27616;-71
2021/01/28 04:59:23;;;;;;;2.22;2.03;;;3.20;99.90;;;;;;478219;247;27964;-69
2021/01/28 05:01:24;;;;;;;4.45;2.72;;;3.20;99.90;;;;;;478081;247;28055;-70
2021/01/28 05:03:25;;;;;;;2.00;1.90;;;3.20;99.90;;;;;;478146;247;28058;-69
2021/01/28 05:05:26;;;;;;;1.90;1.80;;;3.20;99.90;;;;;;478149;247;28007;-70
2021/01/28 05:07:28;;;;;;;2.65;2.03;;;3.30;99.90;;;;;;478072;247;27634;-70
2021/01/28 05:09:29;;;;;;;1.83;1.73;;;3.30;99.90;;;;;;478052;246;27657;-70
2021/01/28 05:11:30;;;;;;;1.80;1.70;;;3.30;99.90;;;;;;478037;247;27563;-70
2021/01/28 05:13:31;;;;;;;1.80;1.70;;;3.40;99.90;;;;;;478140;247;27492;-69
2021/01/28 05:15:33;;;;;;;2.03;1.92;;;3.40;99.90;;;;;;478134;247;27543;-70
2021/01/28 05:17:34;;;;;;;1.70;1.60;;;3.30;99.90;;;;;;478065;247;27543;-70
2021/01/28 05:19:35;;;;;;;1.73;1.62;;;3.40;99.90;;;;;;478119;247;27628;-69
2021/01/28 05:21:36;;;;;;;1.80;1.70;;;3.40;99.90;;;;;;478093;247;27870;-71
2021/01/28 05:23:38;;;;;;;1.77;1.67;;;3.40;99.90;;;;;;478143;247;27594;-69
2021/01/28 05:25:39;;;;;;;1.83;1.73;;;3.40;99.90;;;;;;478123;247;27645;-70
2021/01/28 05:27:40;;;;;;;1.67;1.58;;;3.40;99.90;;;;;;478200;247;28159;-71
2021/01/28 05:29:41;;;;;;;1.70;1.60;;;3.40;99.90;;;;;;478257;247;27978;-69
2021/01/28 05:31:43;;;;;;;1.90;1.80;;;3.40;99.90;;;;;;478075;247;29115;-70
2021/01/28 05:33:44;;;;;;;1.70;1.60;;;3.40;99.90;;;;;;478109;247;27612;-69
2021/01/28 05:35:45;;;;;;;1.95;1.85;;;3.50;99.90;;;;;;478181;247;27534;-69
2021/01/28 05:37:46;;;;;;;1.70;1.60;;;3.40;99.90;;;;;;478296;247;27487;-69
2021/01/28 05:39:48;;;;;;;2.33;2.15;;;3.50;99.90;;;;;;478323;247;27516;-70
2021/01/28 05:41:49;;;;;;;1.90;1.80;;;3.50;99.90;;;;;;478252;247;27547;-71
2021/01/28 05:43:50;;;;;;;2.17;2.08;;;3.50;99.90;;;;;;478289;247;27491;-70
2021/01/28 05:45:51;;;;;;;2.10;2.00;;;3.50;99.90;;;;;;478192;247;27559;-69
2021/01/28 05:47:53;;;;;;;1.70;1.60;;;3.50;99.90;;;;;;478165;247;27562;-70
2021/01/28 05:49:54;;;;;;;1.95;1.85;;;3.50;99.90;;;;;;478178;247;27645;-70
2021/01/28 05:51:55;;;;;;;1.92;1.83;;;3.60;99.90;;;;;;478100;247;27551;-70
2021/01/28 05:53:56;;;;;;;1.70;1.60;;;3.50;99.90;;;;;;478180;247;28032;-69
2021/01/28 05:55:58;;;;;;;1.50;1.40;;;3.50;99.90;;;;;;478140;247;27984;-70
2021/01/28 05:57:59;;;;;;;1.50;1.40;;;3.60;99.90;;;;;;478133;247;28008;-71
2021/01/28 06:00:02;;;;;;;1.48;1.37;;;3.60;99.90;;;;;;478112;247;28081;-69
2021/01/28 06:02:01;;;;;;;1.48;1.37;;;3.60;99.90;;;;;;478062;248;27539;-71
2021/01/28 06:04:03;;;;;;;1.50;1.40;;;3.60;99.90;;;;;;478145;247;27479;-70
2021/01/28 06:06:04;;;;;;;2.53;1.42;;;3.60;99.90;;;;;;478150;247;27535;-69
2021/01/28 06:08:05;;;;;;;1.90;1.65;;;3.70;99.90;;;;;;478125;247;27539;-69
2021/01/28 06:10:06;;;;;;;1.55;1.45;;;3.70;99.90;;;;;;478071;247;27511;-69
2021/01/28 06:12:08;;;;;;;2.15;1.95;;;3.70;99.90;;;;;;478183;247;27559;-70
2021/01/28 06:14:09;;;;;;;2.70;2.08;;;3.70;99.90;;;;;;478151;247;27547;-69
2021/01/28 06:16:10;;;;;;;2.28;2.08;;;3.70;99.90;;;;;;478148;247;27563;-69
2021/01/28 06:18:11;;;;;;;2.12;1.70;;;3.70;99.90;;;;;;478090;247;27610;-69
2021/01/28 06:20:13;;;;;;;1.77;1.67;;;3.70;99.90;;;;;;477991;247;28017;-69
2021/01/28 06:22:14;;;;;;;1.85;1.75;;;3.70;99.90;;;;;;478082;247;28020;-70
2021/01/28 06:24:15;;;;;;;3.05;1.75;;;3.70;99.90;;;;;;478109;247;28071;-70
2021/01/28 06:26:16;;;;;;;1.65;1.55;;;3.80;99.90;;;;;;478112;247;28075;-69
2021/01/28 06:28:18;;;;;;;1.30;1.30;;;3.80;99.90;;;;;;478114;247;27558;-69
2021/01/28 06:30:19;;;;;;;1.52;1.42;;;3.80;99.90;;;;;;477974;247;27566;-71
2021/01/28 06:32:20;;;;;;;1.70;1.60;;;3.80;99.90;;;;;;478156;247;28143;-71
2021/01/28 06:34:21;;;;;;;1.40;1.30;;;3.90;99.90;;;;;;478153;247;27672;-71
2021/01/28 06:36:23;;;;;;;1.30;1.30;;;3.90;99.90;;;;;;478127;247;27562;-70
2021/01/28 06:38:24;;;;;;;1.25;1.25;;;3.90;99.90;;;;;;478059;247;27656;-69
2021/01/28 06:40:25;;;;;;;1.30;1.30;;;3.90;99.90;;;;;;478002;247;27976;-69
2021/01/28 06:42:26;;;;;;;1.20;1.20;;;3.90;99.90;;;;;;478062;247;27495;-69
2021/01/28 06:44:28;;;;;;;1.08;1.08;;;3.90;99.90;;;;;;478115;247;27572;-69
2021/01/28 06:46:29;;;;;;;1.20;1.20;;;3.90;99.90;;;;;;478123;247;28043;-70
2021/01/28 06:48:30;;;;;;;0.90;0.90;;;4.00;99.90;;;;;;478126;247;28042;-69
2021/01/28 06:50:31;;;;;;;1.10;1.10;;;4.00;99.90;;;;;;478049;247;28097;-69
2021/01/28 06:52:33;;;;;;;1.10;1.10;;;4.00;99.90;;;;;;478145;247;27981;-69
2021/01/28 06:54:34;;;;;;;2.65;1.40;;;4.00;99.90;;;;;;478163;247;27539;-71
2021/01/28 06:56:35;;;;;;;1.10;1.10;;;4.00;99.90;;;;;;478163;247;27567;-70
2021/01/28 06:58:36;;;;;;;1.10;1.10;;;4.10;99.90;;;;;;478275;247;27607;-69
2021/01/28 07:00:38;;;;;;;1.10;1.10;;;4.10;99.90;;;;;;478146;247;27631;-69
2021/01/28 07:02:39;;;;;;;1.30;1.30;;;4.00;99.90;;;;;;478158;247;27541;-68
2021/01/28 07:04:40;;;;;;;1.30;1.30;;;4.10;99.90;;;;;;478193;247;27536;-69
2021/01/28 07:06:42;;;;;;;1.20;1.20;;;4.10;99.90;;;;;;478255;247;27539;-68
2021/01/28 07:08:43;;;;;;;0.90;0.90;;;4.10;99.90;;;;;;478279;247;27516;-71
2021/01/28 07:10:44;;;;;;;1.00;1.00;;;4.10;99.90;;;;;;478250;247;27991;-69
2021/01/28 07:12:45;;;;;;;1.00;1.00;;;4.10;99.90;;;;;;478304;247;28075;-69
2021/01/28 07:14:47;;;;;;;16.70;1.55;;;4.10;99.90;;;;;;478308;247;28014;-69
2021/01/28 07:16:49;;;;;;;0.90;0.90;;;4.10;99.90;;;;;;478305;247;27629;-71
2021/01/28 07:18:51;;;;;;;1.30;1.30;;;4.10;99.90;;;;;;478125;247;27642;-71
2021/01/28 07:20:52;;;;;;;1.20;1.20;;;4.10;99.90;;;;;;478038;247;28077;-72
2021/01/28 07:22:53;;;;;;;1.30;1.20;;;4.10;99.90;;;;;;478061;247;28117;-71
2021/01/28 07:24:54;;;;;;;1.05;1.05;;;4.20;99.90;;;;;;478148;247;28177;-72
2021/01/28 07:26:56;;;;;;;1.15;1.10;;;4.10;99.90;;;;;;478137;247;27655;-71
2021/01/28 07:28:57;;;;;;;0.98;0.98;;;4.20;99.90;;;;;;478131;247;27548;-69
2021/01/28 07:30:58;;;;;;;1.00;1.00;;;4.20;99.90;;;;;;478075;247;27580;-69
2021/01/28 07:32:59;;;;;;;1.00;1.00;;;4.20;99.90;;;;;;478094;247;27688;-69
2021/01/28 07:35:01;;;;;;;1.00;1.00;;;4.20;99.90;;;;;;478092;247;27540;-69
2021/01/28 07:37:02;;;;;;;1.58;1.40;;;4.20;99.90;;;;;;478113;247;27530;-69
2021/01/28 07:39:03;;;;;;;1.40;1.30;;;4.20;99.90;;;;;;478111;247;27590;-70
2021/01/28 07:41:04;;;;;;;1.23;1.23;;;4.20;99.90;;;;;;478081;247;27562;-69
2021/01/28 07:43:06;;;;;;;1.08;1.08;;;4.20;99.90;;;;;;478107;247;28011;-68
2021/01/28 07:45:07;;;;;;;1.05;1.00;;;4.20;99.90;;;;;;478098;247;28004;-69
2021/01/28 07:47:08;;;;;;;1.08;0.98;;;4.20;99.90;;;;;;478128;247;28772;-68
2021/01/28 07:49:09;;;;;;;1.00;1.00;;;4.30;99.90;;;;;;478139;247;27540;-70
2021/01/28 07:51:11;;;;;;;1.10;1.10;;;4.30;99.90;;;;;;478085;247;27566;-72
2021/01/28 07:53:12;;;;;;;1.10;1.10;;;4.30;99.90;;;;;;478145;247;27547;-70
2021/01/28 07:55:13;;;;;;;1.10;1.10;;;4.30;99.90;;;;;;478214;247;27517;-69
2021/01/28 07:57:14;;;;;;;1.00;1.00;;;4.30;99.90;;;;;;478242;247;27544;-72
2021/01/28 07:59:16;;;;;;;1.00;1.00;;;4.30;99.90;;;;;;478197;248;27634;-72
2021/01/28 08:01:17;;;;;;;1.10;1.10;;;4.40;99.90;;;;;;478094;247;27643;-69
2021/01/28 08:03:18;;;;;;;1.30;1.20;;;4.40;99.90;;;;;;478109;247;27548;-69
2021/01/28 08:05:19;;;;;;;1.27;1.20;;;4.40;99.90;;;;;;478094;247;28009;-69
2021/01/28 08:07:21;;;;;;;1.30;1.23;;;4.40;99.90;;;;;;478154;247;28058;-70
2021/01/28 08:09:22;;;;;;;0.90;0.90;;;4.50;99.90;;;;;;478110;247;28007;-70
2021/01/28 08:11:23;;;;;;;1.25;1.20;;;4.50;99.90;;;;;;478044;247;27571;-69
2021/01/28 08:13:24;;;;;;;2.80;1.30;;;4.50;99.90;;;;;;478037;247;27639;-69
2021/01/28 08:15:26;;;;;;;1.33;1.23;;;4.50;99.90;;;;;;478139;247;27517;-69
2021/01/28 08:17:27;;;;;;;1.42;1.37;;;4.60;99.90;;;;;;478117;247;27570;-70
2021/01/28 08:19:28;;;;;;;1.73;1.62;;;4.60;99.90;;;;;;478192;247;27646;-69
2021/01/28 08:21:30;;;;;;;1.25;1.25;;;4.60;99.90;;;;;;478255;247;27638;-69
2021/01/28 08:23:31;;;;;;;1.30;1.20;;;4.60;99.90;;;;;;478324;247;27655;-72
2021/01/28 08:25:32;;;;;;;1.10;1.10;;;4.60;99.90;;;;;;478321;247;28019;-69
2021/01/28 08:27:38;;;;;;;1.10;1.10;;;4.70;99.90;;;;;;478274;247;28013;-69
2021/01/28 08:29:34;;;;;;;1.35;1.35;;;4.70;99.90;;;;;;478068;248;27961;-69
2021/01/28 08:31:36;;;;;;;1.00;1.00;;;4.70;99.90;;;;;;478234;247;27542;-69
2021/01/28 08:33:37;;;;;;;1.10;1.10;;;4.70;99.90;;;;;;478226;247;27634;-70
2021/01/28 08:35:38;;;;;;;1.10;1.10;;;4.80;99.90;;;;;;478191;247;27606;-69
2021/01/28 08:37:39;;;;;;;1.10;1.10;;;4.70;99.90;;;;;;478125;247;27570;-70
2021/01/28 08:39:41;;;;;;;1.12;1.10;;;4.80;99.90;;;;;;478104;247;27488;-69
2021/01/28 08:41:42;;;;;;;1.10;1.10;;;4.80;99.90;;;;;;478038;247;27525;-70
2021/01/28 08:43:43;;;;;;;1.10;1.10;;;4.80;99.90;;;;;;478142;247;28170;-70
2021/01/28 08:45:45;;;;;;;0.90;0.90;;;4.80;99.90;;;;;;478164;247;27925;-69
2021/01/28 08:47:46;;;;;;;1.00;1.00;;;4.80;99.90;;;;;;478113;247;27613;-70
2021/01/28 08:49:48;;;;;;;1.08;1.08;;;4.80;99.90;;;;;;478140;247;27539;-70
2021/01/28 08:51:48;;;;;;;1.08;1.08;;;4.80;99.90;;;;;;478056;247;27536;-69
2021/01/28 08:53:50;;;;;;;1.00;1.00;;;4.80;99.90;;;;;;478154;247;27913;-70
2021/01/28 08:55:52;;;;;;;1.10;1.10;;;4.80;99.90;;;;;;478129;247;27486;-69
2021/01/28 08:57:52;;;;;;;1.10;1.10;;;4.80;99.90;;;;;;478073;247;27619;-71
2021/01/28 08:59:53;;;;;;;1.30;1.30;;;4.90;99.90;;;;;;478129;247;27978;-70
2021/01/28 09:01:55;;;;;;;1.33;1.20;;;4.90;99.90;;;;;;478059;247;28028;-70
2021/01/28 09:03:56;;;;;;;1.25;1.20;;;4.90;99.90;;;;;;478124;247;28081;-70
2021/01/28 09:05:57;;;;;;;1.77;1.25;;;4.90;99.90;;;;;;478131;247;27662;-69
2021/01/28 09:07:58;;;;;;;1.80;1.70;;;4.90;99.90;;;;;;478103;247;27597;-70
2021/01/28 09:10:00;;;;;;;1.60;1.50;;;5.00;99.90;;;;;;478085;247;27638;-70
2021/01/28 09:12:01;;;;;;;1.20;1.20;;;5.00;99.90;;;;;;478064;247;27535;-70
2021/01/28 09:14:02;;;;;;;1.67;1.40;;;5.00;99.90;;;;;;478104;247;27538;-70
2021/01/28 09:16:03;;;;;;;1.50;1.37;;;5.00;99.90;;;;;;478151;247;27577;-70
2021/01/28 09:18:05;;;;;;;1.30;1.30;;;5.00;99.90;;;;;;478155;247;28113;-72
2021/01/28 09:20:06;;;;;;;1.60;1.50;;;5.00;99.90;;;;;;478108;247;28005;-69
2021/01/28 09:22:07;;;;;;;2.05;1.48;;;5.10;99.90;;;;;;478107;247;27653;-71
2021/01/28 09:24:08;;;;;;;1.40;1.40;;;5.10;99.90;;;;;;478154;247;27531;-71
2021/01/28 09:26:10;;;;;;;1.40;1.40;;;5.10;99.90;;;;;;478176;247;27554;-70
2021/01/28 09:28:11;;;;;;;1.87;1.70;;;5.10;99.90;;;;;;478162;247;27835;-70
2021/01/28 09:30:12;;;;;;;1.60;1.50;;;5.10;99.90;;;;;;478080;247;27624;-69
2021/01/28 09:32:13;;;;;;;2.03;1.60;;;5.10;99.90;;;;;;478132;247;27544;-71
2021/01/28 09:34:15;;;;;;;1.70;1.60;;;5.10;99.90;;;;;;478397;247;28128;-72
2021/01/28 09:36:16;;;;;;;1.75;1.65;;;5.20;99.90;;;;;;478164;247;28023;-69
2021/01/28 09:38:17;;;;;;;1.42;1.30;;;5.20;99.90;;;;;;478165;247;27539;-72
2021/01/28 09:40:18;;;;;;;1.70;1.60;;;5.30;99.90;;;;;;478053;246;27626;-71
2021/01/28 09:42:21;;;;;;;2.00;1.90;;;5.30;99.90;;;;;;478196;247;27571;-72
2021/01/28 09:44:21;;;;;;;1.60;1.50;;;5.30;99.90;;;;;;478101;248;27559;-71
2021/01/28 09:46:24;;;;;;;2.40;2.20;;;5.40;99.90;;;;;;478115;247;27552;-72
2021/01/28 09:48:23;;;;;;;1.70;1.60;;;5.40;99.90;;;;;;478085;248;27626;-70
2021/01/28 09:50:25;;;;;;;2.58;2.40;;;5.40;99.90;;;;;;478091;247;27950;-71
2021/01/28 09:52:26;;;;;;;1.50;1.40;;;5.40;99.90;;;;;;478295;247;27997;-72
2021/01/28 09:54:33;;;;;;;1.55;1.45;;;5.50;99.90;;;;;;478359;247;27504;-71
2021/01/28 09:56:28;;;;;;;1.83;1.73;;;5.50;99.90;;;;;;477891;248;27535;-69
2021/01/28 09:58:30;;;;;;;1.95;1.85;;;5.50;99.90;;;;;;478280;247;27555;-72
2021/01/28 10:00:31;;;;;;;1.80;1.70;;;5.50;99.90;;;;;;478310;247;27512;-68
2021/01/28 10:02:32;;;;;;;1.52;1.42;;;5.60;99.90;;;;;;478318;247;27670;-71
2021/01/28 10:04:34;;;;;;;1.55;1.48;;;5.70;99.90;;;;;;478154;246;27500;-68
2021/01/28 10:06:35;;;;;;;1.45;1.42;;;5.70;99.90;;;;;;478143;247;27988;-68
2021/01/28 10:08:36;;;;;;;2.08;1.98;;;5.70;99.90;;;;;;478156;247;28065;-70
2021/01/28 10:10:40;;;;;;;1.90;1.70;;;5.80;99.90;;;;;;478083;247;27572;-69
2021/01/28 10:12:41;;;;;;;1.50;1.40;;;5.80;99.90;;;;;;478193;246;28093;-69
2021/01/28 10:14:43;;;;;;;1.50;1.40;;;5.80;99.90;;;;;;475985;232;28116;-71
2021/01/28 10:16:44;;;;;;;2.75;1.50;;;5.90;99.90;;;;;;473960;251;27437;-69
2021/01/28 10:18:45;;;;;;;1.62;1.50;;;5.90;99.90;;;;;;473958;249;27455;-71
2021/01/28 10:20:46;;;;;;;2.45;1.50;;;5.90;99.90;;;;;;473908;250;27469;-71
2021/01/28 10:22:48;;;;;;;1.25;1.25;;;5.90;99.90;;;;;;473943;250;27438;-69
2021/01/28 10:24:49;;;;;;;1.58;1.48;;;5.90;99.90;;;;;;473944;250;27559;-70
2021/01/28 10:26:51;;;;;;;1.40;1.30;;;6.00;99.90;;;;;;473925;250;28001;-69
2021/01/28 10:28:52;;;;;;;1.70;1.60;;;6.00;99.90;;;;;;473908;250;27936;-70
2021/01/28 10:30:54;;;;;;;1.87;1.77;;;6.10;99.90;;;;;;473856;250;27450;-69
2021/01/28 10:32:55;;;;;;;1.50;1.40;;;6.20;99.90;;;;;;473938;250;27530;-69
2021/01/28 10:34:56;;;;;;;1.20;1.20;;;6.30;99.90;;;;;;473956;249;27445;-68